Time;durP1;ratioP1;P1;durP2;ratioP2;P2;SDS_P1;SDS_P2;PMS_P1;PMS_P2;Temp;Humidity;BMP_temperature;BMP_pressure;BME280_temperature;BME280_humidity;BME280_pressure;Samples;Min_cycle;Max_cycle;Signal;HPM_P1;HPM_P2
2022/03/23 00:00:43;;;;;;;7.38;2.90;;;;;;;5.62;34.88;96376.94;5030005;28;20056;-65
2022/03/23 00:03:13;;;;;;;5.28;3.00;;;;;;;5.66;34.57;96383.69;5030040;28;20063;-66
2022/03/23 00:05:41;;;;;;;9.30;3.90;;;;;;;5.41;34.89;96346.69;5029730;28;20029;-66
2022/03/23 00:08:10;;;;;;;7.72;3.92;;;;;;;5.46;35.39;96368.75;5029709;28;20049;-65
2022/03/23 00:10:35;;;;;;;6.18;3.22;;;;;;;5.24;35.38;96353.00;5029708;28;20040;-66
2022/03/23 00:13:03;;;;;;;9.88;3.28;;;;;;;5.14;35.33;96325.94;5029796;28;20526;-65
2022/03/23 00:15:30;;;;;;;7.55;3.42;;;;;;;5.16;35.40;96342.09;5029637;28;20033;-66
2022/03/23 00:17:56;;;;;;;7.18;3.45;;;;;;;5.26;35.56;96376.84;5029329;28;20084;-66
2022/03/23 00:20:21;;;;;;;10.95;4.05;;;;;;;5.10;35.75;96355.84;5029846;28;20492;-64
2022/03/23 00:22:47;;;;;;;6.82;3.10;;;;;;;4.99;35.70;96346.72;5029682;28;20416;-64
2022/03/23 00:25:12;;;;;;;8.00;3.45;;;;;;;5.14;36.08;96369.41;5029439;28;20112;-65
2022/03/23 00:27:38;;;;;;;8.63;4.30;;;;;;;4.95;36.03;96341.66;5029036;28;20465;-65
2022/03/23 00:30:05;;;;;;;9.48;4.40;;;;;;;4.54;36.15;96288.78;5028931;28;20025;-64
2022/03/23 00:32:31;;;;;;;11.73;4.50;;;;;;;5.05;35.80;96369.59;5029153;28;20094;-65
2022/03/23 00:34:56;;;;;;;8.60;4.40;;;;;;;4.87;36.51;96347.78;5029243;28;20041;-65
2022/03/23 00:37:23;;;;;;;8.65;3.70;;;;;;;4.20;36.60;96254.50;5029280;28;20026;-65
2022/03/23 00:39:49;;;;;;;6.97;4.07;;;;;;;4.73;36.58;96354.00;5029013;28;20041;-66
2022/03/23 00:42:15;;;;;;;8.32;3.65;;;;;;;4.76;37.28;96369.28;5028808;28;20029;-64
2022/03/23 00:44:41;;;;;;;6.63;3.17;;;;;;;4.44;37.66;96321.31;5027983;28;20076;-64
2022/03/23 00:47:07;;;;;;;7.22;4.60;;;;;;;4.63;37.30;96369.53;5029121;28;20057;-66
2022/03/23 00:49:32;;;;;;;10.68;4.22;;;;;;;4.55;37.73;96370.50;5029190;28;20041;-66
2022/03/23 00:51:58;;;;;;;9.60;4.20;;;;;;;4.53;37.69;96359.47;5028876;28;20408;-64
2022/03/23 00:54:24;;;;;;;11.05;4.78;;;;;;;4.53;37.71;96377.34;5028547;28;20110;-66
2022/03/23 00:56:51;;;;;;;12.50;5.07;;;;;;;4.41;38.34;96369.91;5029021;28;20061;-65
2022/03/23 00:59:19;;;;;;;10.23;5.10;;;;;;;4.34;37.75;96376.81;5029186;28;20082;-66
2022/03/23 01:01:45;;;;;;;12.35;5.15;;;;;;;4.27;37.99;96380.34;5029008;28;20445;-65
2022/03/23 01:04:12;;;;;;;10.50;5.68;;;;;;;4.29;38.17;96380.31;5028662;28;20112;-65
2022/03/23 01:06:37;;;;;;;15.07;6.82;;;;;;;4.29;38.12;96381.16;5028569;28;20032;-64
2022/03/23 01:09:03;;;;;;;10.70;5.85;;;;;;;4.27;38.39;96374.41;5028733;28;20034;-65
2022/03/23 01:11:29;;;;;;;9.20;5.20;;;;;;;4.36;37.93;96364.03;5028766;28;20516;-66
2022/03/23 01:13:54;;;;;;;12.07;5.68;;;;;;;4.40;38.09;96391.22;5028583;28;20552;-64
2022/03/23 01:16:19;;;;;;;10.90;5.18;;;;;;;4.33;38.10;96370.03;5028797;28;20337;-63
2022/03/23 01:18:45;;;;;;;10.52;4.88;;;;;;;4.32;37.95;96342.81;5028465;28;20471;-64
2022/03/23 01:21:12;;;;;;;9.18;5.15;;;;;;;4.41;37.93;96364.78;5028378;28;20049;-65
2022/03/23 01:23:37;;;;;;;12.57;5.95;;;;;;;4.62;38.07;96365.28;5028800;28;20029;-65
2022/03/23 01:26:04;;;;;;;10.48;5.10;;;;;;;4.50;38.19;96359.53;5028368;28;20025;-67
2022/03/23 01:28:30;;;;;;;10.45;5.28;;;;;;;4.37;38.42;96361.44;5028357;28;20037;-66
2022/03/23 01:30:55;;;;;;;12.00;4.82;;;;;;;4.17;38.78;96354.13;5028335;28;20027;-66
2022/03/23 01:33:22;;;;;;;11.52;5.38;;;;;;;4.24;39.29;96362.53;5028419;28;20037;-65
2022/03/23 01:35:48;;;;;;;11.95;5.70;;;;;;;4.28;38.57;96363.31;5028476;28;20033;-66
2022/03/23 01:38:13;;;;;;;11.95;4.50;;;;;;;4.10;39.03;96352.56;5028306;28;20029;-65
2022/03/23 01:40:39;;;;;;;10.40;4.40;;;;;;;4.07;39.01;96372.16;5026929;28;20034;-65
2022/03/23 01:43:05;;;;;;;12.80;5.07;;;;;;;3.91;39.59;96363.91;5027154;28;20052;-66
2022/03/23 01:45:30;;;;;;;8.65;4.35;;;;;;;3.87;39.49;96363.13;5027956;28;20357;-65
2022/03/23 01:47:55;;;;;;;8.85;4.05;;;;;;;3.94;41.27;96367.25;5028325;28;20073;-66
2022/03/23 01:50:21;;;;;;;9.00;4.55;;;;;;;4.12;41.34;96366.13;5028137;28;20458;-65
2022/03/23 01:52:46;;;;;;;10.15;4.30;;;;;;;4.21;39.87;96358.31;5028212;28;20139;-65
2022/03/23 01:55:14;;;;;;;8.95;4.40;;;;;;;4.25;39.22;96369.31;5027647;28;20022;-66
2022/03/23 01:57:43;;;;;;;10.30;4.68;;;;;;;4.15;39.50;96366.09;5028029;28;20047;-65
2022/03/23 02:00:11;;;;;;;8.55;4.20;;;;;;;3.95;39.62;96322.16;5027985;28;20025;-62
2022/03/23 02:02:40;;;;;;;9.13;4.40;;;;;;;4.11;39.15;96361.88;5028205;28;20033;-64
2022/03/23 02:05:06;;;;;;;9.38;4.40;;;;;;;3.96;39.27;96360.41;5027981;28;20025;-64
2022/03/23 02:07:31;;;;;;;12.80;4.13;;;;;;;3.97;39.61;96364.66;5027652;28;20651;-65
2022/03/23 02:09:57;;;;;;;10.27;4.22;;;;;;;3.80;39.78;96341.94;5027782;28;20637;-64
2022/03/23 02:12:24;;;;;;;11.43;4.32;;;;;;;3.79;40.10;96352.19;5027926;28;20026;-65
2022/03/23 02:14:49;;;;;;;9.45;4.25;;;;;;;3.79;40.36;96353.03;5027778;28;20061;-65
2022/03/23 02:17:15;;;;;;;10.25;4.40;;;;;;;3.80;39.98;96348.75;5028028;28;20107;-64
2022/03/23 02:19:40;;;;;;;10.35;3.97;;;;;;;3.83;40.20;96364.84;5027747;28;20043;-66
2022/03/23 02:22:06;;;;;;;10.65;4.75;;;;;;;3.85;40.17;96362.28;5026453;28;20533;-64
2022/03/23 02:24:33;;;;;;;8.25;4.30;;;;;;;3.79;40.10;96363.22;5027623;28;20049;-64
2022/03/23 02:27:00;;;;;;;9.68;5.57;;;;;;;3.52;40.64;96331.28;5027759;28;20036;-64
2022/03/23 02:29:29;;;;;;;7.88;4.03;;;;;;;3.74;40.55;96364.16;5027816;28;20031;-65
2022/03/23 02:31:56;;;;;;;10.70;4.47;;;;;;;3.44;41.08;96335.66;5027394;28;20206;-66
2022/03/23 02:34:25;;;;;;;8.68;3.80;;;;;;;3.74;40.91;96380.31;5027926;28;20040;-66
2022/03/23 02:36:51;;;;;;;8.48;4.05;;;;;;;3.60;40.71;96331.19;5027589;28;20029;-65
2022/03/23 02:39:16;;;;;;;6.60;3.80;;;;;;;3.84;40.46;96355.50;5026269;28;20410;-65
2022/03/23 02:41:42;;;;;;;9.07;4.82;;;;;;;3.15;40.31;96268.09;5027463;28;20022;-66
2022/03/23 02:44:08;;;;;;;5.85;3.67;;;;;;;3.81;39.81;96356.38;5027007;28;20059;-64
2022/03/23 02:46:35;;;;;;;8.52;3.67;;;;;;;3.76;40.01;96360.72;5027724;28;20025;-64
2022/03/23 02:49:03;;;;;;;8.30;4.50;;;;;;;3.72;40.41;96376.91;5027592;28;20105;-64
2022/03/23 02:51:29;;;;;;;6.88;3.35;;;;;;;3.56;40.83;96370.34;5027578;28;20039;-65
2022/03/23 03:02:36;;;;;;;8.43;3.63;;;;;;;3.63;41.04;96387.28;5031499;28;20144;-66
2022/03/23 03:05:07;;;;;;;6.50;3.65;;;;;;;3.48;41.22;96353.47;5030903;28;20037;-65
2022/03/23 03:10:18;;;;;;;6.35;4.10;;;;;;;3.64;41.46;96388.94;5031204;28;20128;-66
2022/03/23 03:12:43;;;;;;;8.10;4.65;;;;;;;3.48;41.90;96381.50;5030964;28;20512;-66
2022/03/23 03:15:12;;;;;;;7.93;4.00;;;;;;;3.45;42.12;96389.19;5030666;28;20048;-66
2022/03/23 03:17:38;;;;;;;6.60;3.38;;;;;;;3.43;42.25;96380.72;5030858;28;20109;-65
2022/03/23 03:20:04;;;;;;;7.53;3.83;;;;;;;3.46;42.18;96390.91;5030145;28;20461;-64
2022/03/23 03:22:34;;;;;;;8.32;3.90;;;;;;;3.00;43.04;96345.59;5030553;28;20054;-64
2022/03/23 03:25:00;;;;;;;8.13;3.75;;;;;;;2.91;43.00;96346.53;5030671;28;20033;-65
2022/03/23 03:27:26;;;;;;;8.00;3.97;;;;;;;3.06;43.00;96382.88;5031022;28;20060;-66
2022/03/23 03:29:52;;;;;;;9.20;4.07;;;;;;;3.10;43.19;96394.75;5030449;28;20549;-65
2022/03/23 03:32:17;;;;;;;7.07;3.88;;;;;;;3.07;42.94;96387.13;5030491;28;20026;-64
2022/03/23 03:34:43;;;;;;;9.32;4.60;;;;;;;3.03;43.12;96380.38;5030597;28;20035;-66
2022/03/23 03:37:09;;;;;;;8.55;4.03;;;;;;;3.02;43.45;96379.53;5030614;28;20530;-65
2022/03/23 03:39:34;;;;;;;10.18;4.25;;;;;;;3.02;43.66;96379.53;5030433;28;20033;-65
2022/03/23 03:42:01;;;;;;;8.15;4.32;;;;;;;2.81;43.61;96362.78;5029988;28;20025;-64
2022/03/23 03:44:26;;;;;;;12.23;4.30;;;;;;;2.70;44.10;96342.50;5030560;28;20029;-64
2022/03/23 03:46:52;;;;;;;8.23;3.85;;;;;;;2.96;43.87;96374.50;5030184;28;20040;-65
2022/03/23 03:49:18;;;;;;;12.75;4.93;;;;;;;3.01;44.06;96382.94;5030196;28;20029;-66
2022/03/23 03:51:44;;;;;;;8.77;4.20;;;;;;;3.10;44.51;96380.28;5030068;28;20037;-65
2022/03/23 03:54:11;;;;;;;7.70;4.13;;;;;;;2.84;45.13;96327.09;5029727;28;20041;-66
2022/03/23 03:56:36;;;;;;;9.35;4.07;;;;;;;2.76;44.91;96322.06;5030191;28;20472;-65
2022/03/23 03:59:02;;;;;;;10.27;4.10;;;;;;;3.12;45.30;96386.19;5028602;28;20035;-65
2022/03/23 04:01:27;;;;;;;9.23;4.53;;;;;;;2.80;45.08;96327.13;5030069;28;20022;-65
2022/03/23 04:03:53;;;;;;;10.75;4.82;;;;;;;3.15;45.42;96387.03;5029926;28;20711;-66
2022/03/23 04:06:18;;;;;;;10.45;4.50;;;;;;;3.11;45.79;96384.50;5029033;28;20460;-67
2022/03/23 04:08:44;;;;;;;8.10;4.47;;;;;;;3.12;45.88;96386.19;5030023;28;20018;-64
2022/03/23 04:11:09;;;;;;;10.18;4.90;;;;;;;3.11;45.79;96396.41;5029612;28;20033;-64
2022/03/23 04:13:35;;;;;;;8.52;4.53;;;;;;;3.05;46.34;96393.94;5029623;28;20022;-65
2022/03/23 04:16:01;;;;;;;11.25;5.07;;;;;;;3.02;46.41;96387.19;5029559;28;20099;-65
2022/03/23 04:18:27;;;;;;;8.52;4.30;;;;;;;2.93;46.31;96377.09;5029277;28;20079;-65
2022/03/23 04:20:52;;;;;;;10.88;4.80;;;;;;;2.98;46.63;96382.13;5029383;28;20057;-66
2022/03/23 04:23:18;;;;;;;8.63;4.22;;;;;;;3.05;46.47;96399.88;5029614;28;20037;-65
2022/03/23 04:25:43;;;;;;;7.10;4.07;;;;;;;2.94;46.56;96391.53;5029474;28;20037;-67
2022/03/23 04:28:09;;;;;;;8.68;4.47;;;;;;;2.98;46.90;96398.25;5029601;28;20042;-66
2022/03/23 04:30:34;;;;;;;8.18;4.25;;;;;;;2.97;47.21;96401.69;5027868;28;20037;-64
2022/03/23 04:33:01;;;;;;;8.27;4.25;;;;;;;2.83;47.20;96385.69;5029299;28;20033;-65
2022/03/23 04:35:27;;;;;;;7.93;4.95;;;;;;;2.89;47.74;96398.38;5029436;28;20025;-65
2022/03/23 04:37:53;;;;;;;10.77;4.60;;;;;;;2.93;47.73;96400.00;5029669;28;20029;-64
2022/03/23 04:40:19;;;;;;;6.68;3.53;;;;;;;2.94;47.91;96400.00;5029454;28;20487;-65
2022/03/23 04:42:46;;;;;;;10.38;4.07;;;;;;;2.92;47.96;96399.19;5028655;28;20476;-66
2022/03/23 04:45:13;;;;;;;7.15;3.72;;;;;;;2.86;48.25;96383.13;5028724;28;20112;-63
2022/03/23 04:47:39;;;;;;;8.38;4.45;;;;;;;2.68;48.16;96356.97;5029040;28;20056;-66
2022/03/23 04:50:07;;;;;;;11.23;4.20;;;;;;;2.93;48.40;96398.31;5028847;28;20026;-66
2022/03/23 04:52:33;;;;;;;7.72;4.13;;;;;;;2.91;48.69;96389.00;5028747;28;20029;-65
2022/03/23 04:54:58;;;;;;;10.07;3.65;;;;;;;2.81;48.57;96375.50;5028655;28;20424;-66
2022/03/23 04:57:27;;;;;;;9.27;4.00;;;;;;;2.58;48.35;96332.47;5028907;28;20652;-66
2022/03/23 04:59:54;;;;;;;8.88;4.30;;;;;;;3.03;48.54;96390.56;5028965;28;20416;-65
2022/03/23 05:02:19;;;;;;;10.32;4.82;;;;;;;2.87;48.23;96357.63;5028969;28;20036;-65
2022/03/23 05:04:45;;;;;;;8.98;4.20;;;;;;;2.94;48.78;96366.03;5028588;28;20164;-64
2022/03/23 05:07:12;;;;;;;7.35;4.13;;;;;;;2.91;48.51;96363.53;5028134;28;20034;-65
2022/03/23 05:09:37;;;;;;;9.68;4.25;;;;;;;3.14;48.66;96391.28;5028523;28;20030;-64
2022/03/23 05:12:03;;;;;;;9.05;5.35;;;;;;;3.28;48.24;96388.56;5028099;28;20033;-65
2022/03/23 05:14:29;;;;;;;7.55;3.97;;;;;;;3.35;48.42;96392.72;5016840;28;20033;-65
2022/03/23 05:16:54;;;;;;;8.57;4.47;;;;;;;3.52;48.02;96396.78;5008985;28;20061;-67
2022/03/23 05:19:20;;;;;;;13.60;5.90;;;;;;;2.57;47.88;96234.88;5026806;28;20031;-65
2022/03/23 05:21:46;;;;;;;10.63;4.43;;;;;;;3.57;47.80;96400.94;5014009;28;20505;-65
2022/03/23 05:24:11;;;;;;;10.95;5.10;;;;;;;3.63;47.83;96395.75;5007469;28;20061;-65
2022/03/23 05:26:37;;;;;;;8.20;4.30;;;;;;;3.57;47.59;96379.69;5008647;28;20030;-66
2022/03/23 05:29:02;;;;;;;13.05;5.70;;;;;;;3.86;47.40;96400.53;5008764;28;20073;-65
2022/03/23 05:31:28;;;;;;;10.23;4.43;;;;;;;3.74;47.26;96359.91;5014879;28;20611;-66
2022/03/23 05:33:54;;;;;;;11.30;4.50;;;;;;;3.60;47.82;96357.53;5016730;28;20504;-67
2022/03/23 05:36:19;;;;;;;13.63;5.28;;;;;;;3.71;47.30;96339.53;5028066;28;20452;-65
2022/03/23 05:38:45;;;;;;;8.63;4.43;;;;;;;3.98;47.14;96378.25;5023876;28;20096;-64
2022/03/23 05:41:10;;;;;;;11.48;5.40;;;;;;;4.03;47.11;96394.34;5027994;28;20037;-66
2022/03/23 05:43:35;;;;;;;8.07;4.50;;;;;;;4.00;47.24;96384.16;5022007;28;20026;-65
2022/03/23 05:46:01;;;;;;;9.65;4.38;;;;;;;4.10;47.19;96395.94;5008292;28;20092;-66
2022/03/23 05:48:26;;;;;;;12.90;5.00;;;;;;;4.21;47.19;96413.63;5008428;28;20087;-65
2022/03/23 05:50:52;;;;;;;7.88;5.43;;;;;;;4.60;46.24;96409.59;5008109;28;20026;-64
2022/03/23 05:53:17;;;;;;;9.48;5.20;;;;;;;4.20;46.46;96359.19;5008471;28;20037;-63
2022/03/23 05:55:43;;;;;;;8.95;5.13;;;;;;;4.59;47.47;96405.38;5008016;28;20041;-70
2022/03/23 05:58:09;;;;;;;10.60;4.88;;;;;;;4.84;45.93;96409.16;5008226;28;20697;-72
2022/03/23 06:00:35;;;;;;;12.95;5.63;;;;;;;4.85;45.60;96409.16;5008439;28;20034;-72
2022/03/23 06:03:00;;;;;;;13.18;5.35;;;;;;;4.81;45.93;96406.69;5014683;28;20091;-70
2022/03/23 06:05:26;;;;;;;10.88;5.82;;;;;;;4.76;46.16;96389.72;5021600;28;20033;-72
2022/03/23 06:07:51;;;;;;;14.25;5.60;;;;;;;5.06;45.86;96414.75;5016308;28;20477;-71
2022/03/23 06:10:17;;;;;;;10.68;5.53;;;;;;;4.96;45.17;96381.69;5023603;28;20037;-68
2022/03/23 06:12:42;;;;;;;7.47;5.32;;;;;;;5.31;45.44;96415.97;5016134;28;20041;-72
2022/03/23 06:15:10;;;;;;;11.80;6.63;;;;;;;5.17;45.46;96394.94;5005083;28;20174;-71
2022/03/23 06:17:36;;;;;;;12.70;6.18;;;;;;;5.37;45.42;96409.88;5016799;28;20078;-71
2022/03/23 06:20:03;;;;;;;12.73;6.35;;;;;;;5.23;45.75;96412.72;5005383;28;20469;-71
2022/03/23 06:22:28;;;;;;;10.05;5.45;;;;;;;5.12;46.34;96400.13;5015000;28;20045;-72
2022/03/23 06:24:54;;;;;;;16.25;6.60;;;;;;;5.23;46.82;96417.84;5006042;28;20481;-69
2022/03/23 06:27:20;;;;;;;12.98;6.35;;;;;;;4.75;46.42;96302.88;5011029;28;20069;-70
2022/03/23 06:29:45;;;;;;;17.00;6.25;;;;;;;5.31;47.15;96415.09;5023128;28;20060;-69
2022/03/23 06:32:12;;;;;;;14.40;6.85;;;;;;;5.29;46.84;96375.94;5024606;28;20036;-71
2022/03/23 06:34:38;;;;;;;10.57;5.18;;;;;;;5.61;46.51;96412.81;5021157;28;20508;-71
2022/03/23 06:37:04;;;;;;;8.07;5.25;;;;;;;5.60;46.87;96414.50;5025028;28;20037;-74
2022/03/23 06:39:30;;;;;;;7.90;4.10;;;;;;;5.88;46.08;96406.25;5024065;28;20033;-71
2022/03/23 06:41:56;;;;;;;9.93;4.97;;;;;;;5.81;45.63;96395.28;5013756;28;20464;-71
2022/03/23 06:44:22;;;;;;;9.18;4.13;;;;;;;5.79;45.81;96394.50;5031375;28;20072;-70
2022/03/23 06:46:47;;;;;;;8.77;5.25;;;;;;;5.55;46.55;96405.25;5027033;28;20049;-70
2022/03/23 06:49:13;;;;;;;9.65;5.85;;;;;;;5.74;46.59;96413.38;5011325;28;20141;-72
2022/03/23 06:51:39;;;;;;;7.05;3.95;;;;;;;6.02;45.41;96417.06;5011353;28;20193;-70
2022/03/23 06:54:04;;;;;;;10.35;4.45;;;;;;;5.73;45.54;96404.88;5010848;28;20041;-73
2022/03/23 06:56:29;;;;;;;11.82;5.40;;;;;;;5.78;45.60;96418.41;5011493;28;20037;-71
2022/03/23 06:58:58;;;;;;;11.30;4.93;;;;;;;5.25;45.66;96330.84;5011628;28;20029;-70
2022/03/23 07:01:24;;;;;;;9.77;4.82;;;;;;;6.03;45.03;96421.31;5011155;28;20026;-73
2022/03/23 07:03:50;;;;;;;8.38;4.32;;;;;;;5.61;45.31;96357.34;5009715;28;20117;-71
2022/03/23 07:06:16;;;;;;;9.23;4.70;;;;;;;6.00;44.46;96395.78;5010559;28;20034;-71
2022/03/23 07:11:27;;;;;;;7.85;3.80;;;;;;;6.20;43.84;96404.72;5011422;28;20121;-73
2022/03/23 07:13:53;;;;;;;10.75;4.80;;;;;;;6.35;43.85;96419.72;5011164;28;20592;-70
2022/03/23 07:16:18;;;;;;;8.73;3.60;;;;;;;6.12;43.46;96375.88;5011358;28;20026;-72
2022/03/23 07:18:44;;;;;;;10.15;4.10;;;;;;;6.32;43.72;96432.59;5010849;28;20026;-73
2022/03/23 07:21:10;;;;;;;6.15;3.47;;;;;;;6.11;43.49;96403.19;5010791;28;20038;-71
2022/03/23 07:23:36;;;;;;;8.23;4.13;;;;;;;6.40;43.61;96430.69;5026037;28;20096;-74
2022/03/23 07:26:02;;;;;;;8.90;3.90;;;;;;;6.14;43.11;96379.25;5010995;28;20034;-72
2022/03/23 07:28:28;;;;;;;8.05;4.30;;;;;;;5.95;43.21;96348.06;5010982;28;20442;-74
2022/03/23 07:30:53;;;;;;;7.40;3.90;;;;;;;6.31;43.32;96396.75;5010599;28;20032;-71
2022/03/23 07:33:19;;;;;;;7.60;4.25;;;;;;;6.41;43.42;96428.94;5009395;28;20137;-72
2022/03/23 07:35:44;;;;;;;8.75;3.92;;;;;;;6.48;42.85;96420.25;5010748;28;20025;-69
2022/03/23 07:38:10;;;;;;;8.07;4.10;;;;;;;6.49;42.89;96403.16;5011165;28;20165;-73
2022/03/23 07:40:36;;;;;;;10.77;4.20;;;;;;;6.81;41.88;96433.13;5009411;28;20037;-72
2022/03/23 07:43:02;;;;;;;11.40;3.63;;;;;;;7.00;40.99;96423.19;5010306;28;20022;-72
2022/03/23 07:45:27;;;;;;;8.50;4.43;;;;;;;6.33;41.14;96306.19;5010568;28;20026;-72
2022/03/23 07:47:53;;;;;;;8.18;4.35;;;;;;;6.81;41.03;96390.34;5010296;28;20413;-75
2022/03/23 07:50:19;;;;;;;7.50;3.75;;;;;;;7.12;40.58;96430.59;5010223;28;20056;-72
2022/03/23 07:52:45;;;;;;;8.30;4.18;;;;;;;7.11;40.18;96425.50;5010499;28;20045;-72
2022/03/23 07:55:11;;;;;;;10.38;5.28;;;;;;;7.10;40.03;96429.78;5010373;28;20025;-74
2022/03/23 07:57:36;;;;;;;10.95;4.03;;;;;;;7.15;40.44;96409.97;5010551;28;20386;-74
2022/03/23 08:00:03;;;;;;;10.05;4.00;;;;;;;7.22;40.06;96414.94;5010632;28;20025;-70
2022/03/23 08:02:28;;;;;;;6.72;3.70;;;;;;;7.41;39.87;96420.41;5010604;28;20493;-74
2022/03/23 08:04:54;;;;;;;12.88;4.72;;;;;;;7.05;39.41;96341.00;5010494;28;20040;-74
2022/03/23 08:07:20;;;;;;;8.73;3.90;;;;;;;7.16;39.24;96380.03;5009477;28;20057;-73
2022/03/23 08:09:46;;;;;;;14.98;6.70;;;;;;;7.47;40.04;96417.66;5010288;28;20068;-73
2022/03/23 08:12:12;;;;;;;9.20;4.00;;;;;;;7.59;39.71;96413.91;5008960;28;20042;-72
2022/03/23 08:14:38;;;;;;;7.15;3.45;;;;;;;7.46;38.82;96380.91;5010113;28;20588;-71
2022/03/23 08:17:03;;;;;;;9.40;3.97;;;;;;;7.63;38.68;96418.91;5008773;28;20057;-71
2022/03/23 08:19:29;;;;;;;10.73;4.50;;;;;;;7.64;38.54;96401.78;5009767;28;20030;-74
2022/03/23 08:21:54;;;;;;;8.77;4.40;;;;;;;7.86;38.70;96407.97;5009946;28;20425;-73
2022/03/23 08:24:20;;;;;;;7.03;3.70;;;;;;;7.95;38.16;96393.16;5009826;28;20172;-73
2022/03/23 08:26:47;;;;;;;9.30;4.07;;;;;;;7.95;37.33;96385.44;5010150;28;20465;-72
2022/03/23 08:29:13;;;;;;;8.50;4.47;;;;;;;7.97;37.79;96384.53;5009860;28;20113;-74
2022/03/23 08:31:38;;;;;;;17.38;5.45;;;;;;;7.46;37.52;96303.03;5008684;28;20034;-70
2022/03/23 08:34:07;;;;;;;8.98;5.18;;;;;;;8.13;37.88;96413.13;5027960;28;20095;-73
2022/03/23 08:36:33;;;;;;;8.10;4.35;;;;;;;8.25;36.89;96392.19;5029150;28;20025;-71
2022/03/23 08:38:58;;;;;;;10.10;4.68;;;;;;;8.48;37.22;96394.94;5028665;28;20021;-73
2022/03/23 08:41:24;;;;;;;9.82;5.70;;;;;;;8.86;35.41;96395.41;5029483;28;20060;-71
2022/03/23 08:43:50;;;;;;;15.65;6.75;;;;;;;8.99;35.82;96404.38;5028596;28;20400;-68
2022/03/23 08:46:15;;;;;;;8.55;4.72;;;;;;;9.09;41.12;96387.72;5028818;28;20389;-70
2022/03/23 08:48:41;;;;;;;10.68;4.65;;;;;;;9.54;40.99;96392.13;5029148;28;20484;-72
2022/03/23 08:51:07;;;;;;;15.00;6.43;;;;;;;9.95;33.80;96396.59;5028282;28;20030;-71
2022/03/23 08:53:32;;;;;;;8.65;5.10;;;;;;;9.96;33.29;96403.44;5028389;28;20029;-73
2022/03/23 08:55:59;;;;;;;12.75;6.00;;;;;;;9.93;34.05;96390.66;5028461;28;20033;-73
2022/03/23 08:58:25;;;;;;;8.75;4.60;;;;;;;10.37;32.66;96390.69;5028528;28;20515;-73
2022/03/23 09:00:51;;;;;;;8.57;5.05;;;;;;;10.23;32.94;96374.91;5028300;28;20033;-71
2022/03/23 09:03:16;;;;;;;7.22;4.25;;;;;;;10.06;31.81;96368.66;5026443;28;20121;-72
2022/03/23 09:05:42;;;;;;;9.00;5.00;;;;;;;10.26;31.49;96336.97;5027734;28;20095;-72
2022/03/23 09:08:08;;;;;;;12.57;6.18;;;;;;;12.74;28.93;96349.94;5029049;28;20033;-75
2022/03/23 09:10:34;;;;;;;9.80;4.70;;;;;;;13.96;26.48;96373.75;5028413;28;20068;-66
2022/03/23 09:13:00;;;;;;;13.40;5.57;;;;;;;13.70;26.53;96307.78;5029154;28;20033;-73
2022/03/23 09:15:26;;;;;;;9.65;5.07;;;;;;;15.53;24.92;96350.06;5028258;28;20017;-73
2022/03/23 09:17:52;;;;;;;13.80;6.38;;;;;;;18.09;21.26;96354.03;5028048;28;20059;-74
2022/03/23 09:20:18;;;;;;;8.82;5.80;;;;;;;19.36;20.06;96356.78;5028015;28;20100;-74
2022/03/23 09:22:44;;;;;;;11.00;4.88;;;;;;;17.38;21.44;96301.56;5028958;28;20049;-72
2022/03/23 09:25:22;;;;;;;12.57;5.75;;;;;;;17.52;21.52;96368.41;5028252;28;20467;-73
2022/03/23 09:27:48;;;;;;;8.57;4.90;;;;;;;19.49;19.55;96321.84;5027968;28;20022;-73
2022/03/23 09:30:14;;;;;;;7.03;4.55;;;;;;;16.58;21.28;96323.44;5028091;28;20034;-71
2022/03/23 09:32:40;;;;;;;13.52;6.03;;;;;;;16.83;21.34;96317.44;5028361;28;20351;-73
2022/03/23 09:35:06;;;;;;;8.52;4.85;;;;;;;18.68;19.71;96337.53;5028824;28;20013;-73
2022/03/23 09:37:47;;;;;;;9.68;4.90;;;;;;;20.64;17.98;96351.13;5028069;28;20411;-69
2022/03/23 09:40:24;;;;;;;12.82;5.88;;;;;;;22.51;16.33;96331.59;5028742;28;20132;-74
2022/03/23 09:42:51;;;;;;;8.65;5.25;;;;;;;22.92;15.48;96305.09;5027898;28;20429;-74
2022/03/23 09:48:04;;;;;;;7.38;4.32;;;;;;;25.53;13.67;96332.63;5027809;28;20428;-74
2022/03/23 09:50:32;;;;;;;7.60;4.50;;;;;;;25.49;13.71;96340.03;5028042;28;20465;-73
2022/03/23 09:52:58;;;;;;;9.07;4.90;;;;;;;27.91;12.22;96294.78;5027891;28;20092;-73
2022/03/23 09:55:24;;;;;;;9.52;5.72;;;;;;;29.86;10.41;96327.84;5027423;28;20492;-73
2022/03/23 09:57:57;;;;;;;9.43;4.28;;;;;;;28.91;10.64;96297.44;5027853;28;20026;-70
2022/03/23 10:00:27;;;;;;;9.63;5.55;;;;;;;29.75;10.48;96314.97;5027669;28;20037;-71
2022/03/23 10:02:55;;;;;;;9.30;5.82;;;;;;;30.36;9.96;96327.16;5027533;28;20032;-71
2022/03/23 10:05:24;;;;;;;9.50;5.07;;;;;;;28.42;11.13;96322.50;5031561;28;20119;-73
2022/03/23 10:07:54;;;;;;;8.95;5.68;;;;;;;29.04;10.47;96285.34;5031638;28;20124;-72
2022/03/23 10:10:19;;;;;;;9.17;6.03;;;;;;;30.08;10.16;96319.09;5031704;28;20037;-76
2022/03/23 10:12:47;;;;;;;13.18;5.43;;;;;;;29.38;10.68;96314.06;5029822;28;20037;-72
2022/03/23 10:15:50;;;;;;;12.73;5.65;;;;;;;30.08;10.18;96313.75;5031795;28;20543;-73
2022/03/23 10:18:52;;;;;;;9.95;5.82;;;;;;;29.80;10.12;96306.47;5030782;28;20041;-72
2022/03/23 10:21:41;;;;;;;8.70;5.60;;;;;;;30.35;9.54;96294.41;5031636;28;20068;-72
2022/03/23 10:24:06;;;;;;;10.18;5.57;;;;;;;30.27;9.31;96307.00;5031605;28;20467;-73
2022/03/23 10:26:36;;;;;;;9.40;5.45;;;;;;;29.54;9.71;96280.38;5031288;28;20156;-71
2022/03/23 10:29:02;;;;;;;9.03;5.67;;;;;;;30.68;9.28;96301.06;5031744;28;20029;-74
2022/03/23 10:31:28;;;;;;;10.60;5.15;;;;;;;29.85;9.88;96272.19;5030395;28;20017;-75
2022/03/23 10:33:59;;;;;;;7.82;4.57;;;;;;;30.68;9.33;96293.91;5031829;28;20503;-71
2022/03/23 10:36:27;;;;;;;11.93;5.40;;;;;;;32.41;8.49;96287.88;5031764;28;20415;-73
2022/03/23 10:39:00;;;;;;;9.43;5.32;;;;;;;32.27;8.48;96271.03;5031462;28;20090;-74
2022/03/23 10:41:27;;;;;;;16.20;6.22;;;;;;;31.29;8.89;96255.22;5031149;28;20487;-76
2022/03/23 10:43:52;;;;;;;9.00;4.90;;;;;;;31.07;9.13;96278.44;5030941;28;20400;-74
2022/03/23 10:46:20;;;;;;;8.05;5.43;;;;;;;30.66;9.19;96276.47;5029744;28;20033;-73
2022/03/23 10:48:51;;;;;;;9.30;4.43;;;;;;;30.11;9.33;96258.34;5031069;28;20423;-73
2022/03/23 10:51:27;;;;;;;8.77;4.70;;;;;;;32.10;8.48;96267.91;5031065;28;20032;-74
2022/03/23 10:53:53;;;;;;;10.02;5.93;;;;;;;31.92;8.43;96259.63;5030213;28;20503;-72
2022/03/23 10:56:36;;;;;;;12.88;7.38;;;;;;;33.10;7.96;96272.50;5031091;28;20037;-72
2022/03/23 10:59:26;;;;;;;11.30;7.35;;;;;;;33.64;8.10;96247.25;5031701;28;20171;-72
2022/03/23 11:02:02;;;;;;;10.20;6.35;;;;;;;33.40;8.00;96280.06;5030351;28;20488;-74
2022/03/23 11:04:45;;;;;;;11.25;5.72;;;;;;;33.45;7.46;96269.53;5029800;28;20033;-71
2022/03/23 11:07:35;;;;;;;10.13;4.90;;;;;;;32.97;7.91;96271.47;5027852;28;20307;-72
2022/03/23 11:15:49;;;;;;;9.93;5.60;;;;;;;31.95;8.23;96256.56;5027885;28;20451;-71
2022/03/23 11:18:19;;;;;;;9.88;5.03;;;;;;;32.66;7.89;96247.25;5023715;28;20464;-71
2022/03/23 11:20:52;;;;;;;10.35;5.18;;;;;;;32.30;8.09;96224.41;5027394;28;20076;-71
2022/03/23 11:23:19;;;;;;;9.82;7.05;;;;;;;32.41;7.85;96229.16;5007222;28;20126;-73
2022/03/23 11:25:52;;;;;;;10.65;5.28;;;;;;;31.43;8.48;96253.44;5020772;28;20040;-71
2022/03/23 11:28:18;;;;;;;10.73;4.85;;;;;;;31.19;8.63;96252.94;5020478;28;20030;-71
2022/03/23 11:30:45;;;;;;;7.18;4.45;;;;;;;30.85;8.92;96241.19;5022977;28;20044;-71
2022/03/23 11:33:21;;;;;;;8.98;5.97;;;;;;;30.38;8.93;96253.31;5025544;28;20041;-70
2022/03/23 11:35:49;;;;;;;9.52;5.57;;;;;;;31.17;8.76;96238.97;5024256;28;20037;-73
2022/03/23 11:38:22;;;;;;;9.63;5.50;;;;;;;30.26;9.00;96217.56;5026843;28;20033;-72
2022/03/23 11:40:49;;;;;;;13.20;6.32;;;;;;;31.06;9.13;96220.88;5025172;28;20020;-72
2022/03/23 11:43:17;;;;;;;8.88;4.90;;;;;;;31.76;8.80;96213.59;5020241;28;20501;-70
2022/03/23 11:45:45;;;;;;;8.98;4.40;;;;;;;31.80;8.89;96232.72;5022876;28;20479;-73
2022/03/23 11:48:30;;;;;;;13.05;5.43;;;;;;;31.34;8.89;96229.63;5024633;28;20022;-72
2022/03/23 11:51:14;;;;;;;6.75;4.10;;;;;;;29.97;9.46;96230.78;5026606;28;20705;-72
2022/03/23 11:53:58;;;;;;;8.45;4.70;;;;;;;28.13;10.46;96235.69;5029712;28;20038;-73
2022/03/23 11:56:28;;;;;;;8.40;5.95;;;;;;;28.15;10.81;96201.03;5028475;28;20160;-72
2022/03/23 11:58:53;;;;;;;12.15;5.10;;;;;;;28.95;10.28;96221.72;5018966;28;20660;-73